MSR843 HECA-DTTA
Flight info
| Callsign | MSR843 |
|---|---|
| Flight time | 3h 5m |
| Altitude | 32000 |
| Route | MENKU L617 NABSI M872 METRU UP868 ARLOS/N0452F300 N4 DOBIX/N0373F180 M978 SONAK/N0450F340 UM978 ADRIL |
| Aircraft | A320/M-SDE3FGHIRWY/LB1 |
Departure
| Time | 2026-04-27 15:00 |
|---|---|
| Airport | Cairo International Airport (HECA) |
Arrival
| Time | 2026-04-27 18:05 |
|---|---|
| Airport | Tunis Carthage International Airport (DTTA) |
| Time | Latitude | Longitude | Altitude | Speed | Heading |
|---|---|---|---|---|---|
| 2026-04-27 14:36 | 30.10869 | 31.39654 | 374 ft | 0 kts | 254° |
| 2026-04-27 14:47 | 30.10873 | 31.39670 | 374 ft | 2 kts | 256° |
| 2026-04-27 14:47 | 30.10877 | 31.39689 | 374 ft | 2 kts | 255° |
| 2026-04-27 14:47 | 30.10881 | 31.39708 | 374 ft | 2 kts | 249° |
| 2026-04-27 14:47 | 30.10888 | 31.39725 | 374 ft | 2 kts | 235° |
| 2026-04-27 14:48 | 30.10899 | 31.39739 | 374 ft | 2 kts | 207° |
| 2026-04-27 14:48 | 30.10912 | 31.39744 | 374 ft | 0 kts | 167° |
| 2026-04-27 14:51 | 30.10908 | 31.39745 | 374 ft | 1 kts | 167° |
| 2026-04-27 14:52 | 30.10866 | 31.39757 | 374 ft | 11 kts | 165° |
| 2026-04-27 14:52 | 30.10799 | 31.39778 | 374 ft | 9 kts | 165° |
| 2026-04-27 14:52 | 30.10736 | 31.39798 | 374 ft | 11 kts | 165° |
| 2026-04-27 14:52 | 30.10646 | 31.39825 | 374 ft | 16 kts | 165° |
| 2026-04-27 14:53 | 30.10526 | 31.39863 | 374 ft | 19 kts | 156° |
| 2026-04-27 14:53 | 30.10501 | 31.39979 | 374 ft | 16 kts | 58° |
| 2026-04-27 14:53 | 30.10572 | 31.40076 | 374 ft | 16 kts | 48° |
| 2026-04-27 14:53 | 30.10650 | 31.40177 | 374 ft | 17 kts | 49° |
| 2026-04-27 14:54 | 30.10731 | 31.40286 | 374 ft | 19 kts | 49° |
| 2026-04-27 14:54 | 30.10819 | 31.40402 | 374 ft | 20 kts | 48° |
| 2026-04-27 14:54 | 30.10918 | 31.40526 | 374 ft | 22 kts | 49° |
| 2026-04-27 14:54 | 30.11015 | 31.40661 | 374 ft | 22 kts | 48° |
| 2026-04-27 14:55 | 30.11086 | 31.40782 | 374 ft | 15 kts | 90° |
| 2026-04-27 14:55 | 30.11063 | 31.40885 | 374 ft | 12 kts | 61° |
| 2026-04-27 14:55 | 30.11100 | 31.40934 | 375 ft | 14 kts | 48° |
| 2026-04-27 14:55 | 30.11181 | 31.41040 | 375 ft | 21 kts | 48° |
| 2026-04-27 14:56 | 30.11293 | 31.41185 | 375 ft | 27 kts | 47° |
| 2026-04-27 14:56 | 30.11427 | 31.41367 | 375 ft | 26 kts | 49° |
| 2026-04-27 14:56 | 30.11560 | 31.41545 | 374 ft | 32 kts | 49° |
| 2026-04-27 14:56 | 30.11674 | 31.41694 | 374 ft | 25 kts | 49° |
| 2026-04-27 14:57 | 30.11791 | 31.41846 | 374 ft | 26 kts | 49° |
| 2026-04-27 14:57 | 30.11908 | 31.42006 | 375 ft | 27 kts | 49° |
| 2026-04-27 14:57 | 30.12029 | 31.42170 | 375 ft | 27 kts | 49° |
| 2026-04-27 14:57 | 30.12141 | 31.42318 | 375 ft | 19 kts | 49° |
| 2026-04-27 14:58 | 30.12195 | 31.42395 | 374 ft | 10 kts | 59° |
| 2026-04-27 14:58 | 30.12192 | 31.42474 | 374 ft | 12 kts | 120° |
| 2026-04-27 14:58 | 30.12124 | 31.42550 | 374 ft | 14 kts | 138° |
| 2026-04-27 14:58 | 30.12050 | 31.42597 | 372 ft | 8 kts | 214° |
| 2026-04-27 14:59 | 30.12047 | 31.42591 | 372 ft | 3 kts | 230° |
| 2026-04-27 14:59 | 30.11935 | 31.42434 | 372 ft | 58 kts | 230° |
| 2026-04-27 14:59 | 30.11519 | 31.41886 | 372 ft | 120 kts | 229° |
| 2026-04-27 14:59 | 30.10853 | 31.41004 | 372 ft | 169 kts | 229° |
| 2026-04-27 15:00 | 30.10032 | 31.39983 | 905 ft | 170 kts | 230° |
| 2026-04-27 15:00 | 30.09247 | 31.38953 | 1532 ft | 171 kts | 236° |
| 2026-04-27 15:00 | 30.08468 | 31.37906 | 2127 ft | 172 kts | 235° |
| 2026-04-27 15:00 | 30.07695 | 31.36850 | 2733 ft | 173 kts | 236° |
| 2026-04-27 15:01 | 30.06919 | 31.35782 | 3317 ft | 174 kts | 237° |
| 2026-04-27 15:01 | 30.06120 | 31.34691 | 3754 ft | 188 kts | 236° |
| 2026-04-27 15:01 | 30.05253 | 31.33442 | 4007 ft | 209 kts | 244° |
| 2026-04-27 15:01 | 30.04837 | 31.31815 | 4283 ft | 221 kts | 276° |
| 2026-04-27 15:02 | 30.05370 | 31.30046 | 4575 ft | 237 kts | 311° |
| 2026-04-27 15:02 | 30.06655 | 31.28709 | 5120 ft | 252 kts | 321° |
| 2026-04-27 15:02 | 30.08009 | 31.27435 | 5904 ft | 257 kts | 322° |
| 2026-04-27 15:02 | 30.09388 | 31.26143 | 6728 ft | 259 kts | 322° |
| 2026-04-27 15:03 | 30.10769 | 31.24844 | 7824 ft | 249 kts | 322° |
| 2026-04-27 15:03 | 30.12090 | 31.23595 | 8724 ft | 249 kts | 323° |
| 2026-04-27 15:03 | 30.13429 | 31.22327 | 9558 ft | 249 kts | 323° |
| 2026-04-27 15:03 | 30.14772 | 31.21052 | 10341 ft | 251 kts | 323° |
| 2026-04-27 15:04 | 30.16131 | 31.19761 | 11040 ft | 254 kts | 323° |
| 2026-04-27 15:04 | 30.17507 | 31.18453 | 11714 ft | 258 kts | 322° |
| 2026-04-27 15:04 | 30.18902 | 31.17127 | 12397 ft | 262 kts | 322° |
| 2026-04-27 15:04 | 30.20322 | 31.15780 | 13080 ft | 265 kts | 322° |
| 2026-04-27 15:05 | 30.21757 | 31.14416 | 13745 ft | 269 kts | 322° |
| 2026-04-27 15:05 | 30.23212 | 31.13029 | 14349 ft | 273 kts | 321° |
| 2026-04-27 15:05 | 30.24681 | 31.11629 | 14954 ft | 275 kts | 321° |
| 2026-04-27 15:05 | 30.26166 | 31.10216 | 15568 ft | 278 kts | 321° |
| 2026-04-27 15:06 | 30.27647 | 31.08805 | 16179 ft | 280 kts | 321° |
| 2026-04-27 15:06 | 30.29159 | 31.07362 | 16775 ft | 283 kts | 321° |
| 2026-04-27 15:06 | 30.30719 | 31.05875 | 17029 ft | 300 kts | 321° |
| 2026-04-27 15:06 | 30.32381 | 31.04289 | 17169 ft | 319 kts | 320° |
| 2026-04-27 15:07 | 30.34140 | 31.02610 | 17304 ft | 337 kts | 320° |
| 2026-04-27 15:07 | 30.35997 | 31.00835 | 17441 ft | 354 kts | 320° |
| 2026-04-27 15:07 | 30.37923 | 30.98994 | 17805 ft | 363 kts | 320° |
| 2026-04-27 15:07 | 30.39878 | 30.97126 | 18329 ft | 367 kts | 320° |
| 2026-04-27 15:08 | 30.41850 | 30.95242 | 18828 ft | 370 kts | 320° |
| 2026-04-27 15:08 | 30.43679 | 30.93493 | 19324 ft | 372 kts | 320° |
| 2026-04-27 15:08 | 30.45586 | 30.91666 | 19823 ft | 374 kts | 320° |
| 2026-04-27 15:08 | 30.47625 | 30.89705 | 20369 ft | 377 kts | 320° |
| 2026-04-27 15:09 | 30.49646 | 30.87763 | 20891 ft | 379 kts | 320° |
| 2026-04-27 15:09 | 30.51684 | 30.85804 | 21409 ft | 381 kts | 319° |
| 2026-04-27 15:09 | 30.53733 | 30.83837 | 21916 ft | 384 kts | 319° |
| 2026-04-27 15:09 | 30.55766 | 30.81886 | 22404 ft | 386 kts | 319° |
| 2026-04-27 15:10 | 30.57843 | 30.79892 | 22885 ft | 388 kts | 319° |
| 2026-04-27 15:10 | 30.59928 | 30.77889 | 23347 ft | 390 kts | 319° |
| 2026-04-27 15:10 | 30.62028 | 30.75870 | 23767 ft | 393 kts | 319° |
| 2026-04-27 15:10 | 30.64136 | 30.73839 | 24152 ft | 395 kts | 319° |
| 2026-04-27 15:11 | 30.66246 | 30.71805 | 24524 ft | 396 kts | 319° |
| 2026-04-27 15:11 | 30.68376 | 30.69750 | 24889 ft | 398 kts | 319° |
| 2026-04-27 15:11 | 30.70516 | 30.67687 | 25237 ft | 400 kts | 319° |
| 2026-04-27 15:11 | 30.72665 | 30.65616 | 25583 ft | 402 kts | 319° |
| 2026-04-27 15:12 | 30.74822 | 30.63535 | 25934 ft | 404 kts | 319° |
| 2026-04-27 15:12 | 30.76955 | 30.61473 | 26267 ft | 406 kts | 319° |
| 2026-04-27 15:12 | 30.79131 | 30.59367 | 26600 ft | 408 kts | 319° |
| 2026-04-27 15:12 | 30.81315 | 30.57251 | 26936 ft | 409 kts | 318° |
| 2026-04-27 15:13 | 30.83504 | 30.55132 | 27251 ft | 411 kts | 319° |
| 2026-04-27 15:13 | 30.85711 | 30.52998 | 27570 ft | 413 kts | 318° |
| 2026-04-27 15:13 | 30.87923 | 30.50858 | 27885 ft | 415 kts | 318° |
| 2026-04-27 15:13 | 30.90143 | 30.48707 | 28196 ft | 416 kts | 318° |
| 2026-04-27 15:14 | 30.92375 | 30.46541 | 28487 ft | 418 kts | 318° |
| 2026-04-27 15:14 | 30.94610 | 30.44370 | 28771 ft | 419 kts | 318° |
| 2026-04-27 15:14 | 30.96823 | 30.42219 | 29048 ft | 421 kts | 318° |
| 2026-04-27 15:14 | 30.99075 | 30.40029 | 29324 ft | 422 kts | 318° |
| 2026-04-27 15:15 | 31.01336 | 30.37827 | 29582 ft | 424 kts | 318° |
| 2026-04-27 15:15 | 31.03599 | 30.35622 | 29830 ft | 425 kts | 318° |
| 2026-04-27 15:15 | 31.05859 | 30.33398 | 30067 ft | 426 kts | 315° |
| 2026-04-27 15:15 | 31.07879 | 30.30872 | 30273 ft | 425 kts | 306° |
| 2026-04-27 15:16 | 31.09485 | 30.27993 | 30560 ft | 423 kts | 297° |
| 2026-04-27 15:16 | 31.10652 | 30.24862 | 30855 ft | 421 kts | 289° |
| 2026-04-27 15:16 | 31.11544 | 30.21611 | 31154 ft | 419 kts | 288° |
| 2026-04-27 15:16 | 31.12412 | 30.18421 | 31464 ft | 417 kts | 288° |
| 2026-04-27 15:17 | 31.13289 | 30.15197 | 31773 ft | 416 kts | 288° |
| 2026-04-27 15:17 | 31.14161 | 30.11987 | 31969 ft | 414 kts | 288° |
| 2026-04-27 15:17 | 31.15884 | 30.05652 | 32003 ft | 406 kts | 288° |
| 2026-04-27 15:18 | 31.17594 | 29.99371 | 32003 ft | 405 kts | 288° |
| 2026-04-27 15:18 | 31.19828 | 29.93420 | 32007 ft | 404 kts | 303° |
| 2026-04-27 15:19 | 31.23128 | 29.88096 | 31999 ft | 405 kts | 305° |
| 2026-04-27 15:19 | 31.26449 | 29.82782 | 32003 ft | 405 kts | 305° |
| 2026-04-27 15:20 | 31.29767 | 29.77466 | 32005 ft | 405 kts | 305° |
| 2026-04-27 15:20 | 31.33078 | 29.72154 | 32004 ft | 404 kts | 305° |
| 2026-04-27 15:21 | 31.36361 | 29.66872 | 32012 ft | 404 kts | 305° |
| 2026-04-27 15:21 | 31.39665 | 29.61547 | 32007 ft | 404 kts | 305° |
| 2026-04-27 15:22 | 31.42957 | 29.56236 | 32018 ft | 404 kts | 305° |
| 2026-04-27 15:22 | 31.46258 | 29.50905 | 32007 ft | 403 kts | 305° |
| 2026-04-27 15:23 | 31.49547 | 29.45587 | 32000 ft | 403 kts | 305° |
| 2026-04-27 15:23 | 31.52811 | 29.40311 | 31999 ft | 403 kts | 305° |
| 2026-04-27 15:24 | 31.56091 | 29.34991 | 32001 ft | 402 kts | 305° |
| 2026-04-27 15:24 | 31.59361 | 29.29667 | 32002 ft | 402 kts | 305° |
| 2026-04-27 15:25 | 31.62635 | 29.24334 | 31998 ft | 402 kts | 305° |
| 2026-04-27 15:25 | 31.65904 | 29.18999 | 32008 ft | 402 kts | 305° |
| 2026-04-27 15:26 | 31.69142 | 29.13709 | 32002 ft | 402 kts | 305° |
| 2026-04-27 15:26 | 31.72404 | 29.08365 | 32004 ft | 402 kts | 305° |
| 2026-04-27 15:27 | 31.75661 | 29.03027 | 32009 ft | 402 kts | 305° |
| 2026-04-27 15:27 | 31.78917 | 28.97682 | 32010 ft | 402 kts | 305° |
| 2026-04-27 15:28 | 31.82155 | 28.92367 | 32022 ft | 402 kts | 305° |
| 2026-04-27 15:28 | 31.85405 | 28.87025 | 32021 ft | 402 kts | 305° |
| 2026-04-27 15:29 | 31.88676 | 28.81633 | 32024 ft | 401 kts | 305° |
| 2026-04-27 15:29 | 31.91912 | 28.76293 | 32019 ft | 401 kts | 305° |
| 2026-04-27 15:30 | 31.95144 | 28.70956 | 32021 ft | 400 kts | 305° |
| 2026-04-27 15:30 | 31.98371 | 28.65615 | 32016 ft | 400 kts | 305° |
| 2026-04-27 15:31 | 32.01594 | 28.60268 | 32015 ft | 400 kts | 305° |
| 2026-04-27 15:31 | 32.04790 | 28.54963 | 32029 ft | 400 kts | 304° |
| 2026-04-27 15:32 | 32.07997 | 28.49634 | 32033 ft | 400 kts | 305° |
| 2026-04-27 15:32 | 32.10159 | 28.46045 | 32022 ft | 399 kts | 305° |
| 2026-04-27 15:33 | 32.10635 | 28.45258 | 32018 ft | 399 kts | 305° |
| 2026-04-27 15:33 | 32.13853 | 28.39921 | 32020 ft | 399 kts | 304° |
| 2026-04-27 15:34 | 32.16593 | 28.35337 | 32033 ft | 399 kts | 304° |
| 2026-04-27 15:34 | 32.19757 | 28.30030 | 32036 ft | 398 kts | 304° |
| 2026-04-27 15:35 | 32.22960 | 28.24676 | 32033 ft | 398 kts | 304° |
| 2026-04-27 15:35 | 32.26260 | 28.19159 | 32025 ft | 398 kts | 304° |
| 2026-04-27 15:36 | 32.29480 | 28.13752 | 32036 ft | 398 kts | 304° |
| 2026-04-27 15:36 | 32.32770 | 28.08212 | 32036 ft | 397 kts | 304° |
| 2026-04-27 15:37 | 32.35975 | 28.02837 | 32027 ft | 397 kts | 304° |
| 2026-04-27 15:37 | 32.39178 | 27.97444 | 32043 ft | 397 kts | 304° |
| 2026-04-27 15:38 | 32.42396 | 27.92011 | 32034 ft | 397 kts | 304° |
| 2026-04-27 15:38 | 32.45559 | 27.86669 | 32044 ft | 397 kts | 304° |
| 2026-04-27 15:39 | 32.48749 | 27.81280 | 32033 ft | 396 kts | 304° |
| 2026-04-27 15:39 | 32.51912 | 27.75929 | 32036 ft | 396 kts | 304° |
| 2026-04-27 15:40 | 32.55059 | 27.70588 | 32045 ft | 396 kts | 304° |
| 2026-04-27 15:40 | 32.58189 | 27.65274 | 32040 ft | 396 kts | 304° |
| 2026-04-27 15:41 | 32.61359 | 27.59877 | 32029 ft | 396 kts | 304° |
| 2026-04-27 15:41 | 32.64502 | 27.54520 | 32044 ft | 396 kts | 304° |
| 2026-04-27 15:42 | 32.67656 | 27.49136 | 32035 ft | 396 kts | 304° |
| 2026-04-27 15:42 | 32.70762 | 27.43827 | 32047 ft | 396 kts | 304° |
| 2026-04-27 15:43 | 32.73868 | 27.38505 | 32038 ft | 396 kts | 304° |
| 2026-04-27 15:43 | 32.77040 | 27.33060 | 32046 ft | 396 kts | 304° |
| 2026-04-27 15:44 | 32.79658 | 27.28555 | 32046 ft | 396 kts | 304° |
| 2026-04-27 15:44 | 32.83295 | 27.22285 | 32044 ft | 396 kts | 304° |
| 2026-04-27 15:45 | 32.85663 | 27.18207 | 32037 ft | 396 kts | 304° |
| 2026-04-27 15:45 | 32.88796 | 27.12798 | 32037 ft | 396 kts | 304° |
| 2026-04-27 15:46 | 32.91886 | 27.07453 | 32039 ft | 396 kts | 304° |
| 2026-04-27 15:46 | 32.95005 | 27.02045 | 32038 ft | 396 kts | 304° |
| 2026-04-27 15:47 | 32.98117 | 26.96654 | 32039 ft | 396 kts | 303° |
| 2026-04-27 15:47 | 33.01218 | 26.91264 | 32038 ft | 396 kts | 303° |
| 2026-04-27 15:48 | 33.04305 | 26.85878 | 32036 ft | 396 kts | 303° |
| 2026-04-27 15:49 | 33.08983 | 26.77704 | 32037 ft | 397 kts | 303° |
| 2026-04-27 15:49 | 33.12098 | 26.72251 | 32039 ft | 397 kts | 303° |
| 2026-04-27 15:50 | 33.15211 | 26.66793 | 32055 ft | 397 kts | 303° |
| 2026-04-27 15:50 | 33.18312 | 26.61350 | 32045 ft | 398 kts | 303° |
| 2026-04-27 15:51 | 33.21419 | 26.55898 | 32046 ft | 398 kts | 303° |
| 2026-04-27 15:51 | 33.24520 | 26.50440 | 32044 ft | 398 kts | 303° |
| 2026-04-27 15:52 | 33.27643 | 26.44927 | 32045 ft | 399 kts | 303° |
| 2026-04-27 15:52 | 33.30740 | 26.39447 | 32044 ft | 399 kts | 303° |
| 2026-04-27 15:53 | 33.33867 | 26.33915 | 32060 ft | 399 kts | 303° |
| 2026-04-27 15:53 | 33.37034 | 26.28322 | 32057 ft | 398 kts | 303° |
| 2026-04-27 15:54 | 33.40137 | 26.22826 | 32054 ft | 399 kts | 303° |
| 2026-04-27 15:54 | 33.43258 | 26.17279 | 32064 ft | 399 kts | 303° |
| 2026-04-27 15:55 | 33.46364 | 26.11759 | 32047 ft | 399 kts | 303° |
| 2026-04-27 15:55 | 33.49438 | 26.06293 | 32043 ft | 398 kts | 303° |
| 2026-04-27 15:56 | 33.52535 | 26.00754 | 32046 ft | 398 kts | 302° |
| 2026-04-27 15:56 | 33.55579 | 25.95314 | 32046 ft | 398 kts | 302° |
| 2026-04-27 15:57 | 33.58683 | 25.89769 | 32047 ft | 398 kts | 302° |
| 2026-04-27 15:57 | 33.61752 | 25.84268 | 32045 ft | 398 kts | 302° |
| 2026-04-27 15:58 | 33.64842 | 25.78721 | 32045 ft | 398 kts | 302° |
| 2026-04-27 15:58 | 33.67895 | 25.73229 | 32051 ft | 398 kts | 302° |
| 2026-04-27 15:59 | 33.70960 | 25.67709 | 32054 ft | 398 kts | 302° |
| 2026-04-27 15:59 | 33.74042 | 25.62160 | 32050 ft | 398 kts | 302° |
| 2026-04-27 16:00 | 33.77103 | 25.56632 | 32055 ft | 399 kts | 302° |
| 2026-04-27 16:00 | 33.80182 | 25.51066 | 32050 ft | 399 kts | 302° |
| 2026-04-27 16:01 | 33.83242 | 25.45518 | 32051 ft | 399 kts | 302° |
| 2026-04-27 16:01 | 33.86294 | 25.39985 | 32051 ft | 399 kts | 302° |
| 2026-04-27 16:02 | 33.89358 | 25.34423 | 32052 ft | 399 kts | 302° |
| 2026-04-27 16:02 | 33.92227 | 25.29191 | 32056 ft | 399 kts | 302° |
| 2026-04-27 16:03 | 33.95284 | 25.23615 | 32056 ft | 399 kts | 302° |
| 2026-04-27 16:03 | 33.98354 | 25.18020 | 32059 ft | 399 kts | 302° |
| 2026-04-27 16:04 | 34.00870 | 25.12158 | 32057 ft | 398 kts | 290° |
| 2026-04-27 16:04 | 34.02734 | 25.05823 | 32102 ft | 404 kts | 292° |
| 2026-04-27 16:05 | 34.04583 | 24.99453 | 32057 ft | 400 kts | 290° |
| 2026-04-27 16:05 | 34.06537 | 24.93172 | 32065 ft | 399 kts | 290° |
| 2026-04-27 16:06 | 34.08468 | 24.86872 | 32058 ft | 399 kts | 290° |
| 2026-04-27 16:06 | 34.10370 | 24.80499 | 32066 ft | 399 kts | 290° |
| 2026-04-27 16:07 | 34.12226 | 24.74237 | 32063 ft | 399 kts | 290° |
| 2026-04-27 16:07 | 34.14105 | 24.67896 | 32063 ft | 399 kts | 290° |
| 2026-04-27 16:08 | 34.15986 | 24.61541 | 32057 ft | 399 kts | 289° |
| 2026-04-27 16:08 | 34.17858 | 24.55218 | 32057 ft | 400 kts | 290° |
| 2026-04-27 16:09 | 34.19752 | 24.48824 | 32056 ft | 400 kts | 290° |
| 2026-04-27 16:09 | 34.22556 | 24.39335 | 32056 ft | 401 kts | 289° |
| 2026-04-27 16:10 | 34.26268 | 24.26674 | 32058 ft | 401 kts | 289° |
| 2026-04-27 16:11 | 34.29059 | 24.17126 | 32058 ft | 402 kts | 289° |
| 2026-04-27 16:12 | 34.31830 | 24.07585 | 32058 ft | 402 kts | 289° |
| 2026-04-27 16:13 | 34.34615 | 23.97988 | 32060 ft | 403 kts | 289° |
| 2026-04-27 16:13 | 34.37399 | 23.88354 | 32065 ft | 403 kts | 289° |
| 2026-04-27 16:14 | 34.41102 | 23.75540 | 32065 ft | 404 kts | 289° |
| 2026-04-27 16:15 | 34.44512 | 23.63657 | 32067 ft | 405 kts | 289° |
| 2026-04-27 16:16 | 34.48202 | 23.50736 | 32065 ft | 405 kts | 289° |
| 2026-04-27 16:17 | 34.51872 | 23.37830 | 32066 ft | 406 kts | 289° |
| 2026-04-27 16:18 | 34.55547 | 23.24854 | 32073 ft | 407 kts | 289° |
| 2026-04-27 16:19 | 34.57375 | 23.18376 | 32073 ft | 408 kts | 289° |
| 2026-04-27 16:20 | 34.61033 | 23.05353 | 32079 ft | 409 kts | 289° |
| 2026-04-27 16:21 | 34.63679 | 22.95551 | 32084 ft | 409 kts | 287° |
| 2026-04-27 16:22 | 34.66727 | 22.82175 | 32087 ft | 410 kts | 285° |
| 2026-04-27 16:22 | 34.69054 | 22.72175 | 32086 ft | 410 kts | 286° |
| 2026-04-27 16:23 | 34.71390 | 22.62183 | 32088 ft | 411 kts | 286° |
| 2026-04-27 16:24 | 34.72928 | 22.55546 | 32093 ft | 411 kts | 286° |
| 2026-04-27 16:25 | 34.76020 | 22.42135 | 32096 ft | 412 kts | 285° |
| 2026-04-27 16:26 | 34.79106 | 22.28692 | 32102 ft | 413 kts | 285° |
| 2026-04-27 16:27 | 34.82179 | 22.15220 | 32103 ft | 414 kts | 285° |
| 2026-04-27 16:28 | 34.86015 | 21.98337 | 32119 ft | 414 kts | 285° |
| 2026-04-27 16:29 | 34.89847 | 21.81349 | 32108 ft | 414 kts | 285° |
| 2026-04-27 16:30 | 34.92874 | 21.67802 | 32110 ft | 415 kts | 285° |
| 2026-04-27 16:31 | 34.96667 | 21.50746 | 32117 ft | 415 kts | 285° |
| 2026-04-27 16:32 | 34.98939 | 21.40513 | 32102 ft | 415 kts | 285° |
| 2026-04-27 16:33 | 35.01177 | 21.30331 | 32103 ft | 415 kts | 284° |
| 2026-04-27 16:33 | 35.02678 | 21.23467 | 32104 ft | 416 kts | 284° |
| 2026-04-27 16:34 | 35.04167 | 21.16637 | 32115 ft | 416 kts | 284° |
| 2026-04-27 16:34 | 35.05659 | 21.09821 | 32117 ft | 416 kts | 284° |
| 2026-04-27 16:35 | 35.07144 | 21.03027 | 32101 ft | 416 kts | 284° |
| 2026-04-27 16:36 | 35.09362 | 20.92785 | 32109 ft | 416 kts | 284° |
| 2026-04-27 16:36 | 35.10834 | 20.85950 | 32115 ft | 416 kts | 284° |
| 2026-04-27 16:37 | 35.12304 | 20.79104 | 32114 ft | 417 kts | 284° |
| 2026-04-27 16:37 | 35.13769 | 20.72270 | 32111 ft | 417 kts | 284° |
| 2026-04-27 16:38 | 35.15239 | 20.65413 | 32121 ft | 417 kts | 284° |
| 2026-04-27 16:38 | 35.16607 | 20.59009 | 32119 ft | 418 kts | 284° |
| 2026-04-27 16:39 | 35.18065 | 20.52136 | 32119 ft | 418 kts | 284° |
| 2026-04-27 16:39 | 35.19523 | 20.45264 | 32114 ft | 418 kts | 284° |
| 2026-04-27 16:40 | 35.20977 | 20.38388 | 32115 ft | 418 kts | 284° |
| 2026-04-27 16:40 | 35.22428 | 20.31508 | 32125 ft | 418 kts | 284° |
| 2026-04-27 16:41 | 35.23869 | 20.24678 | 32117 ft | 418 kts | 284° |
| 2026-04-27 16:41 | 35.25320 | 20.17771 | 32120 ft | 418 kts | 284° |
| 2026-04-27 16:42 | 35.26741 | 20.10948 | 32111 ft | 418 kts | 284° |
| 2026-04-27 16:42 | 35.28183 | 20.03989 | 32127 ft | 418 kts | 283° |
| 2026-04-27 16:43 | 35.29610 | 19.97096 | 32125 ft | 418 kts | 283° |
| 2026-04-27 16:43 | 35.31028 | 19.90237 | 32112 ft | 418 kts | 283° |
| 2026-04-27 16:44 | 35.32452 | 19.83340 | 32117 ft | 418 kts | 284° |
| 2026-04-27 16:44 | 35.33879 | 19.76413 | 32122 ft | 418 kts | 284° |
| 2026-04-27 16:45 | 35.35293 | 19.69547 | 32113 ft | 417 kts | 283° |
| 2026-04-27 16:45 | 35.36706 | 19.62631 | 32124 ft | 417 kts | 283° |
| 2026-04-27 16:46 | 35.38108 | 19.55735 | 32121 ft | 416 kts | 283° |
| 2026-04-27 16:46 | 35.39519 | 19.48762 | 32123 ft | 416 kts | 284° |
| 2026-04-27 16:47 | 35.40683 | 19.43021 | 32124 ft | 416 kts | 284° |
| 2026-04-27 16:47 | 35.42065 | 19.36176 | 32124 ft | 416 kts | 283° |
| 2026-04-27 16:48 | 35.43486 | 19.29110 | 32129 ft | 415 kts | 284° |
| 2026-04-27 16:48 | 35.44876 | 19.22234 | 32113 ft | 415 kts | 284° |
| 2026-04-27 16:49 | 35.46929 | 19.11924 | 32122 ft | 415 kts | 283° |
| 2026-04-27 16:49 | 35.48287 | 19.05098 | 32121 ft | 414 kts | 284° |
| 2026-04-27 16:50 | 35.49673 | 18.98110 | 32124 ft | 414 kts | 284° |
| 2026-04-27 16:50 | 35.51032 | 18.91230 | 32123 ft | 414 kts | 284° |
| 2026-04-27 16:51 | 35.52378 | 18.84417 | 32117 ft | 414 kts | 284° |
| 2026-04-27 16:51 | 35.53729 | 18.77537 | 32122 ft | 413 kts | 284° |
| 2026-04-27 16:52 | 35.55063 | 18.70714 | 32120 ft | 413 kts | 284° |
| 2026-04-27 16:52 | 35.56397 | 18.63858 | 32115 ft | 412 kts | 284° |
| 2026-04-27 16:53 | 35.57735 | 18.57018 | 32123 ft | 412 kts | 284° |
| 2026-04-27 16:53 | 35.59059 | 18.50223 | 32115 ft | 412 kts | 284° |
| 2026-04-27 16:54 | 35.60360 | 18.43456 | 32111 ft | 412 kts | 284° |
| 2026-04-27 16:54 | 35.61689 | 18.36536 | 32124 ft | 412 kts | 284° |
| 2026-04-27 16:55 | 35.62999 | 18.29694 | 32118 ft | 412 kts | 284° |
| 2026-04-27 16:55 | 35.64312 | 18.22852 | 32118 ft | 412 kts | 284° |
| 2026-04-27 16:56 | 35.65623 | 18.16004 | 32119 ft | 412 kts | 284° |
| 2026-04-27 16:56 | 35.66932 | 18.09097 | 32125 ft | 412 kts | 284° |
| 2026-04-27 16:57 | 35.68216 | 18.02302 | 32126 ft | 411 kts | 284° |
| 2026-04-27 16:57 | 35.69525 | 17.95397 | 32129 ft | 411 kts | 284° |
| 2026-04-27 16:58 | 35.70798 | 17.88655 | 32127 ft | 411 kts | 284° |
| 2026-04-27 16:58 | 35.72093 | 17.81743 | 32129 ft | 410 kts | 284° |
| 2026-04-27 16:59 | 35.73362 | 17.74952 | 32129 ft | 410 kts | 284° |
| 2026-04-27 16:59 | 35.74647 | 17.68067 | 32130 ft | 410 kts | 284° |
| 2026-04-27 17:00 | 35.76554 | 17.57782 | 32133 ft | 410 kts | 284° |
| 2026-04-27 17:01 | 35.77814 | 17.50978 | 32133 ft | 410 kts | 283° |
| 2026-04-27 17:01 | 35.79065 | 17.44168 | 32132 ft | 410 kts | 284° |
| 2026-04-27 17:02 | 35.80340 | 17.37264 | 32133 ft | 410 kts | 283° |
| 2026-04-27 17:02 | 35.81585 | 17.30446 | 32134 ft | 410 kts | 283° |
| 2026-04-27 17:03 | 35.82826 | 17.23592 | 32133 ft | 410 kts | 283° |
| 2026-04-27 17:03 | 35.84072 | 17.16744 | 32130 ft | 410 kts | 283° |
| 2026-04-27 17:04 | 35.85310 | 17.09896 | 32127 ft | 409 kts | 283° |
| 2026-04-27 17:04 | 35.86536 | 17.03111 | 32115 ft | 407 kts | 283° |
| 2026-04-27 17:05 | 35.87761 | 16.96296 | 32111 ft | 407 kts | 283° |
| 2026-04-27 17:05 | 35.88912 | 16.89452 | 32112 ft | 407 kts | 282° |
| 2026-04-27 17:06 | 35.89912 | 16.82580 | 32112 ft | 408 kts | 281° |
| 2026-04-27 17:06 | 35.90900 | 16.75687 | 32115 ft | 408 kts | 281° |
| 2026-04-27 17:07 | 35.91905 | 16.68807 | 32117 ft | 407 kts | 281° |
| 2026-04-27 17:07 | 35.92919 | 16.61937 | 32114 ft | 407 kts | 281° |
| 2026-04-27 17:08 | 35.93926 | 16.55070 | 32112 ft | 407 kts | 281° |
| 2026-04-27 17:08 | 35.94936 | 16.48154 | 32113 ft | 407 kts | 281° |
| 2026-04-27 17:09 | 35.95940 | 16.41286 | 32113 ft | 407 kts | 281° |
| 2026-04-27 17:09 | 35.96936 | 16.34421 | 32111 ft | 407 kts | 281° |
| 2026-04-27 17:10 | 35.97917 | 16.27553 | 32112 ft | 406 kts | 281° |
| 2026-04-27 17:10 | 35.98896 | 16.20683 | 32113 ft | 406 kts | 281° |
| 2026-04-27 17:11 | 35.99876 | 16.13808 | 32113 ft | 406 kts | 281° |
| 2026-04-27 17:11 | 36.01344 | 16.03517 | 32114 ft | 406 kts | 281° |
| 2026-04-27 17:12 | 36.02798 | 15.93226 | 32116 ft | 406 kts | 281° |
| 2026-04-27 17:13 | 36.03740 | 15.86511 | 32116 ft | 405 kts | 281° |
| 2026-04-27 17:13 | 36.04696 | 15.79696 | 32119 ft | 405 kts | 281° |
| 2026-04-27 17:14 | 36.05647 | 15.72846 | 32122 ft | 405 kts | 281° |
| 2026-04-27 17:14 | 36.06601 | 15.65993 | 32114 ft | 404 kts | 281° |
| 2026-04-27 17:15 | 36.07546 | 15.59151 | 32113 ft | 404 kts | 281° |
| 2026-04-27 17:15 | 36.08481 | 15.52313 | 32110 ft | 403 kts | 280° |
| 2026-04-27 17:16 | 36.09418 | 15.45480 | 32109 ft | 403 kts | 281° |
| 2026-04-27 17:16 | 36.10353 | 15.38657 | 32104 ft | 403 kts | 280° |
| 2026-04-27 17:17 | 36.11275 | 15.31874 | 32107 ft | 402 kts | 280° |
| 2026-04-27 17:17 | 36.12198 | 15.25021 | 32109 ft | 402 kts | 280° |
| 2026-04-27 17:18 | 36.13570 | 15.14803 | 32109 ft | 401 kts | 280° |
| 2026-04-27 17:18 | 36.14479 | 15.07954 | 32107 ft | 400 kts | 280° |
| 2026-04-27 17:19 | 36.15377 | 15.01217 | 32110 ft | 400 kts | 280° |
| 2026-04-27 17:19 | 36.16278 | 14.94442 | 32114 ft | 399 kts | 280° |
| 2026-04-27 17:20 | 36.17170 | 14.87678 | 32113 ft | 398 kts | 280° |
| 2026-04-27 17:20 | 36.18061 | 14.80903 | 32113 ft | 397 kts | 280° |
| 2026-04-27 17:21 | 36.18944 | 14.74132 | 32105 ft | 397 kts | 280° |
| 2026-04-27 17:21 | 36.19817 | 14.67382 | 32105 ft | 396 kts | 280° |
| 2026-04-27 17:22 | 36.20539 | 14.61780 | 32105 ft | 396 kts | 280° |
| 2026-04-27 17:22 | 36.21396 | 14.55109 | 32102 ft | 396 kts | 280° |
| 2026-04-27 17:23 | 36.22267 | 14.48321 | 32098 ft | 395 kts | 279° |
| 2026-04-27 17:23 | 36.23123 | 14.41643 | 32096 ft | 395 kts | 279° |
| 2026-04-27 17:24 | 36.23978 | 14.34937 | 32100 ft | 395 kts | 279° |
| 2026-04-27 17:24 | 36.24827 | 14.28213 | 32098 ft | 394 kts | 279° |
| 2026-04-27 17:25 | 36.25672 | 14.21514 | 32097 ft | 394 kts | 279° |
| 2026-04-27 17:25 | 36.26513 | 14.14818 | 32096 ft | 393 kts | 279° |
| 2026-04-27 17:26 | 36.27337 | 14.08175 | 32097 ft | 392 kts | 279° |
| 2026-04-27 17:26 | 36.28169 | 14.01491 | 32095 ft | 392 kts | 279° |
| 2026-04-27 17:27 | 36.28995 | 13.94817 | 32094 ft | 392 kts | 279° |
| 2026-04-27 17:27 | 36.29816 | 13.88140 | 32091 ft | 392 kts | 279° |
| 2026-04-27 17:28 | 36.30629 | 13.81478 | 32090 ft | 391 kts | 279° |
| 2026-04-27 17:29 | 36.31841 | 13.71523 | 32086 ft | 391 kts | 279° |
| 2026-04-27 17:29 | 36.32655 | 13.64838 | 32089 ft | 391 kts | 279° |
| 2026-04-27 17:30 | 36.33457 | 13.58179 | 32090 ft | 391 kts | 279° |
| 2026-04-27 17:30 | 36.34645 | 13.48227 | 32088 ft | 390 kts | 278° |
| 2026-04-27 17:31 | 36.35437 | 13.41566 | 32087 ft | 390 kts | 278° |
| 2026-04-27 17:31 | 36.36224 | 13.34907 | 32085 ft | 390 kts | 278° |
| 2026-04-27 17:32 | 36.37398 | 13.24913 | 32086 ft | 390 kts | 278° |
| 2026-04-27 17:33 | 36.38167 | 13.18299 | 32083 ft | 390 kts | 278° |
| 2026-04-27 17:33 | 36.38942 | 13.11641 | 32087 ft | 390 kts | 278° |
| 2026-04-27 17:34 | 36.39717 | 13.04990 | 32080 ft | 390 kts | 278° |
| 2026-04-27 17:34 | 36.40488 | 12.98333 | 32084 ft | 389 kts | 278° |
| 2026-04-27 17:35 | 36.41248 | 12.91675 | 32080 ft | 389 kts | 278° |
| 2026-04-27 17:35 | 36.42006 | 12.85024 | 32082 ft | 389 kts | 278° |
| 2026-04-27 17:36 | 36.42765 | 12.78377 | 32082 ft | 389 kts | 278° |
| 2026-04-27 17:36 | 36.43516 | 12.71723 | 32079 ft | 389 kts | 278° |
| 2026-04-27 17:37 | 36.44265 | 12.65081 | 32079 ft | 389 kts | 278° |
| 2026-04-27 17:37 | 36.45005 | 12.58426 | 32080 ft | 389 kts | 277° |
| 2026-04-27 17:38 | 36.45741 | 12.51780 | 32080 ft | 388 kts | 277° |
| 2026-04-27 17:38 | 36.46476 | 12.45145 | 32077 ft | 388 kts | 277° |
| 2026-04-27 17:39 | 36.47209 | 12.38487 | 32074 ft | 388 kts | 277° |
| 2026-04-27 17:39 | 36.47940 | 12.31837 | 32077 ft | 388 kts | 277° |
| 2026-04-27 17:40 | 36.48668 | 12.25142 | 32076 ft | 388 kts | 277° |
| 2026-04-27 17:40 | 36.49385 | 12.18491 | 32075 ft | 388 kts | 277° |
| 2026-04-27 17:41 | 36.50170 | 12.11849 | 32071 ft | 389 kts | 282° |
| 2026-04-27 17:41 | 36.51441 | 12.05316 | 32081 ft | 389 kts | 282° |
| 2026-04-27 17:42 | 36.52714 | 11.98777 | 32075 ft | 389 kts | 282° |
| 2026-04-27 17:42 | 36.53968 | 11.92277 | 32072 ft | 389 kts | 282° |
| 2026-04-27 17:43 | 36.55217 | 11.85728 | 32075 ft | 389 kts | 282° |
| 2026-04-27 17:43 | 36.56479 | 11.79123 | 31956 ft | 391 kts | 282° |
| 2026-04-27 17:43 | 36.57107 | 11.75837 | 31700 ft | 391 kts | 282° |
| 2026-04-27 17:44 | 36.57739 | 11.72535 | 31450 ft | 393 kts | 282° |
| 2026-04-27 17:44 | 36.58378 | 11.69186 | 31207 ft | 394 kts | 282° |
| 2026-04-27 17:44 | 36.59012 | 11.65861 | 30958 ft | 396 kts | 282° |
| 2026-04-27 17:44 | 36.59646 | 11.62523 | 30718 ft | 397 kts | 282° |
| 2026-04-27 17:45 | 36.60282 | 11.59178 | 30470 ft | 397 kts | 282° |
| 2026-04-27 17:45 | 36.60914 | 11.55837 | 29677 ft | 399 kts | 282° |
| 2026-04-27 17:45 | 36.61549 | 11.52454 | 28499 ft | 405 kts | 282° |
| 2026-04-27 17:45 | 36.62194 | 11.49011 | 27392 ft | 408 kts | 282° |
| 2026-04-27 17:46 | 36.62827 | 11.45645 | 26753 ft | 396 kts | 282° |
| 2026-04-27 17:46 | 36.63453 | 11.42324 | 26160 ft | 391 kts | 282° |
| 2026-04-27 17:46 | 36.64082 | 11.39000 | 25576 ft | 387 kts | 282° |
| 2026-04-27 17:46 | 36.64696 | 11.35753 | 25016 ft | 383 kts | 282° |
| 2026-04-27 17:47 | 36.65298 | 11.32539 | 24463 ft | 379 kts | 282° |
| 2026-04-27 17:47 | 36.65688 | 11.30438 | 24137 ft | 377 kts | 282° |
| 2026-04-27 17:47 | 36.66473 | 11.26197 | 23381 ft | 373 kts | 282° |
| 2026-04-27 17:47 | 36.67052 | 11.23070 | 22874 ft | 368 kts | 282° |
| 2026-04-27 17:48 | 36.67623 | 11.19984 | 22385 ft | 364 kts | 282° |
| 2026-04-27 17:48 | 36.68180 | 11.16971 | 21910 ft | 360 kts | 282° |
| 2026-04-27 17:48 | 36.68736 | 11.13948 | 21437 ft | 356 kts | 282° |
| 2026-04-27 17:48 | 36.69287 | 11.10955 | 20946 ft | 353 kts | 282° |
| 2026-04-27 17:49 | 36.69842 | 11.07943 | 20463 ft | 350 kts | 282° |
| 2026-04-27 17:49 | 36.70378 | 11.05030 | 19974 ft | 348 kts | 282° |
| 2026-04-27 17:49 | 36.70733 | 11.02064 | 19487 ft | 345 kts | 272° |
| 2026-04-27 17:49 | 36.70763 | 10.99042 | 18975 ft | 344 kts | 270° |
| 2026-04-27 17:50 | 36.70778 | 10.96071 | 18476 ft | 343 kts | 270° |
| 2026-04-27 17:50 | 36.70810 | 10.90156 | 17418 ft | 339 kts | 270° |
| 2026-04-27 17:50 | 36.70830 | 10.87225 | 16932 ft | 337 kts | 270° |
| 2026-04-27 17:51 | 36.70848 | 10.84310 | 16231 ft | 340 kts | 270° |
| 2026-04-27 17:51 | 36.70867 | 10.81324 | 15325 ft | 349 kts | 271° |
| 2026-04-27 17:51 | 36.70882 | 10.78313 | 14439 ft | 344 kts | 271° |
| 2026-04-27 17:51 | 36.70895 | 10.75346 | 13479 ft | 340 kts | 271° |
| 2026-04-27 17:52 | 36.70906 | 10.72420 | 12425 ft | 336 kts | 271° |
| 2026-04-27 17:52 | 36.70920 | 10.69515 | 11444 ft | 335 kts | 271° |
| 2026-04-27 17:52 | 36.70933 | 10.66585 | 10996 ft | 331 kts | 270° |
| 2026-04-27 17:52 | 36.70939 | 10.64697 | 10676 ft | 328 kts | 270° |
| 2026-04-27 17:53 | 36.70950 | 10.60907 | 10379 ft | 314 kts | 270° |
| 2026-04-27 17:53 | 36.70958 | 10.58265 | 10257 ft | 301 kts | 270° |
| 2026-04-27 17:53 | 36.70967 | 10.55706 | 10121 ft | 290 kts | 270° |
| 2026-04-27 17:53 | 36.70974 | 10.53226 | 9919 ft | 283 kts | 270° |
| 2026-04-27 17:54 | 36.71001 | 10.50728 | 9551 ft | 282 kts | 275° |
| 2026-04-27 17:54 | 36.71549 | 10.48419 | 9195 ft | 280 kts | 298° |
| 2026-04-27 17:54 | 36.72903 | 10.46667 | 8553 ft | 289 kts | 332° |
| 2026-04-27 17:54 | 36.74833 | 10.46167 | 8277 ft | 286 kts | 5° |
| 2026-04-27 17:55 | 36.76690 | 10.47004 | 7964 ft | 287 kts | 30° |
| 2026-04-27 17:55 | 36.78397 | 10.48365 | 7575 ft | 287 kts | 29° |
| 2026-04-27 17:55 | 36.80185 | 10.49431 | 7210 ft | 284 kts | 18° |
| 2026-04-27 17:55 | 36.82083 | 10.50024 | 6838 ft | 281 kts | 7° |
| 2026-04-27 17:56 | 36.84025 | 10.50239 | 6432 ft | 279 kts | 0° |
| 2026-04-27 17:56 | 36.85949 | 10.50199 | 6077 ft | 275 kts | 354° |
| 2026-04-27 17:56 | 36.87266 | 10.50062 | 5834 ft | 276 kts | 352° |
| 2026-04-27 17:56 | 36.89226 | 10.49698 | 5434 ft | 273 kts | 347° |
| 2026-04-27 17:57 | 36.91070 | 10.49157 | 5071 ft | 271 kts | 343° |
| 2026-04-27 17:57 | 36.92857 | 10.48430 | 4717 ft | 269 kts | 338° |
| 2026-04-27 17:57 | 36.94574 | 10.47514 | 4353 ft | 268 kts | 333° |
| 2026-04-27 17:57 | 36.96237 | 10.46394 | 3996 ft | 267 kts | 328° |
| 2026-04-27 17:58 | 36.97793 | 10.45124 | 3650 ft | 267 kts | 324° |
| 2026-04-27 17:58 | 36.99230 | 10.43723 | 3308 ft | 266 kts | 319° |
| 2026-04-27 17:58 | 37.00584 | 10.42148 | 2950 ft | 265 kts | 314° |
| 2026-04-27 17:58 | 37.01814 | 10.40447 | 2719 ft | 258 kts | 309° |
| 2026-04-27 17:59 | 37.02872 | 10.38718 | 2638 ft | 243 kts | 305° |
| 2026-04-27 17:59 | 37.03783 | 10.36966 | 2528 ft | 231 kts | 300° |
| 2026-04-27 17:59 | 37.04541 | 10.35233 | 2441 ft | 224 kts | 296° |
| 2026-04-27 17:59 | 37.05197 | 10.33440 | 2334 ft | 224 kts | 292° |
| 2026-04-27 18:00 | 37.05801 | 10.31641 | 2262 ft | 224 kts | 291° |
| 2026-04-27 18:00 | 37.06025 | 10.29768 | 2182 ft | 219 kts | 254° |
| 2026-04-27 18:00 | 37.05247 | 10.28258 | 2094 ft | 208 kts | 209° |
| 2026-04-27 18:00 | 37.03849 | 10.27753 | 2015 ft | 205 kts | 185° |
| 2026-04-27 18:01 | 37.02445 | 10.27438 | 2014 ft | 205 kts | 189° |
| 2026-04-27 18:01 | 37.01031 | 10.27051 | 2015 ft | 206 kts | 191° |
| 2026-04-27 18:01 | 36.99643 | 10.26669 | 2010 ft | 200 kts | 190° |
| 2026-04-27 18:01 | 36.98276 | 10.26293 | 2039 ft | 184 kts | 190° |
| 2026-04-27 18:02 | 36.97075 | 10.25964 | 1981 ft | 168 kts | 189° |
| 2026-04-27 18:02 | 36.95909 | 10.25646 | 1821 ft | 158 kts | 189° |
| 2026-04-27 18:02 | 36.94836 | 10.25352 | 1629 ft | 146 kts | 189° |
| 2026-04-27 18:02 | 36.93875 | 10.25090 | 1463 ft | 140 kts | 189° |
| 2026-04-27 18:03 | 36.92929 | 10.24833 | 1291 ft | 137 kts | 189° |
| 2026-04-27 18:03 | 36.92002 | 10.24580 | 1097 ft | 136 kts | 188° |
| 2026-04-27 18:03 | 36.91071 | 10.24327 | 917 ft | 137 kts | 187° |
| 2026-04-27 18:03 | 36.90135 | 10.24071 | 742 ft | 138 kts | 189° |
| 2026-04-27 18:04 | 36.89198 | 10.23815 | 582 ft | 138 kts | 187° |
| 2026-04-27 18:04 | 36.88265 | 10.23558 | 388 ft | 137 kts | 188° |
| 2026-04-27 18:04 | 36.87322 | 10.23304 | 208 ft | 139 kts | 188° |
| 2026-04-27 18:04 | 36.86389 | 10.23044 | 38 ft | 132 kts | 189° |
| 2026-04-27 18:05 | 36.85651 | 10.22851 | 30 ft | 84 kts | 192° |
| 2026-04-27 18:05 | 36.85212 | 10.22736 | 31 ft | 55 kts | 193° |
| 2026-04-27 18:05 | 36.84978 | 10.22666 | 33 ft | 50 kts | 192° |
| 2026-04-27 18:05 | 36.84721 | 10.22596 | 31 ft | 28 kts | 193° |
| 2026-04-27 18:06 | 36.84545 | 10.22496 | 29 ft | 29 kts | 226° |
| 2026-04-27 18:06 | 36.84483 | 10.22264 | 30 ft | 30 kts | 274° |
| 2026-04-27 18:06 | 36.84523 | 10.22097 | 30 ft | 8 kts | 313° |
| 2026-04-27 18:06 | 36.84553 | 10.22047 | 30 ft | 7 kts | 291° |
| 2026-04-27 18:07 | 36.84566 | 10.22005 | 30 ft | 0 kts | 292° |